Stevenson, AL (35772)

8:21 AM CST on February 10, 2016 (GMT -0600)
Richard City | | Change Station
CLOSE
Current Station
Personal Weather Station
Location: South Pittsburg, TN
Elevation: 630 ft
Nearby Weather Stations
Active Advisory: Special Statement Active Notice: Local Storm Report

Elev 630 ft 34.99 °N, 85.73 °W | Updated 13 seconds ago

Overcast
Overcast
25.7 °F
Feels Like 21 °F
N
3.7
Wind Variable Wind from SSW
Gusts 3.7 mph

Today
High -- | Low -- °F
--% Chance of Precip.
Yesterday
High -- | Low -- °F
Precip. -- in
Pressure 30.18 in
Visibility 10.0 miles
Clouds Clear
Windchill 21 °F
Dew Point 14 °F
Humidity 62%
Rainfall 0.00 in
Snow Depth Not available.
6:34 AM 5:20 PM
Waxing Crescent, 5% visible
METAR K4A6 101415Z AUTO 30006KT 250V320 10SM CLR M04/M11 A3018 RMK AO2
Pressure 30.18 in
Visibility 10.0 miles
Clouds Clear
Windchill 21 °F
Dew Point 14 °F
Humidity 62%
Rainfall 0.00 in
Snow Depth Not available.
6:34 AM 5:20 PM
Waxing Crescent, 5% visible
METAR K4A6 101415Z AUTO 30006KT 250V320 10SM CLR M04/M11 A3018 RMK AO2

10-Day Weather Forecast

Almanac

Astronomy

Feb. 10, 2016 Rise Set
Actual Time
Civil Twilight
Nautical Twilight
Astronomical Twilight
Moon
Length of Visible Light
Length of Day
Tomorrow will be .
, % of the Moon is Illuminated

Today's Extremes

State Highs State Lows

Community

WunderPhotos

Upload Photos

1,891,850 photos uploaded!

WunderBlog® & News

Nearby

Air Quality

  Air Quality AQ Index Pollutant
Not available.

Snow Depth

Station Depth Elevation

Earthquake Activity

City Distance Mag. Time & Date
Minimum magnitude displayed is 2.5.

Coastal Water Temperatures

Place Temperature

Stations

Nearby Weather Stations

Station Location Temp. Windchill Dew Point Humidity Wind Precip. Elev Updated Type
                   

Watches & Warnings

Special Statement
Issued: 11:40 PM CST Feb. 9, 2016 – National Weather Service

... Patchy black ice tonight and Wednesday morning...

Recent snowfall... mainly east of Interstate 65... will cause some
patchy black ice on area roads overnight and Wednesday morning. Be
especially cautious for black ice on bridges and overpasses.
Temperatures on Wednesday will be slow to warm up with afternoon
highs struggling into the lower 30s... especially for locations east
of Interstate 65.